Time;durP1;ratioP1;P1;durP2;ratioP2;P2;SDS_P1;SDS_P2;PMS_P1;PMS_P2;Temp;Humidity;BMP_temperature;BMP_pressure;BME280_temperature;BME280_humidity;BME280_pressure;Samples;Min_cycle;Max_cycle;Signal;HPM_P1;HPM_P2
2024/02/01 00:01:19;;;;;;;11.30;5.93;;;7.30;99.90;;;;;;6148208;23;20013;-86
2024/02/01 00:03:46;;;;;;;15.77;6.38;;;6.30;99.90;;;;;;6148452;23;20005;-86
2024/02/01 00:06:13;;;;;;;13.35;6.47;;;6.30;99.90;;;;;;6148190;23;20010;-86
2024/02/01 00:08:39;;;;;;;14.57;6.53;;;7.00;99.90;;;;;;6148275;23;20145;-86
2024/02/01 00:11:06;;;;;;;14.13;6.90;;;6.40;99.90;;;;;;6148407;23;20013;-86
2024/02/01 00:13:32;;;;;;;13.38;6.90;;;6.40;99.90;;;;;;6148412;23;20504;-86
2024/02/01 00:15:59;;;;;;;13.98;6.30;;;6.40;99.90;;;;;;6148109;23;20009;-86
2024/02/01 00:18:26;;;;;;;14.52;6.38;;;6.50;99.90;;;;;;6172472;23;20024;-85
2024/02/01 00:20:52;;;;;;;13.50;7.03;;;6.40;99.90;;;;;;6172854;23;20029;-86
2024/02/01 00:23:19;;;;;;;14.57;6.88;;;6.70;99.90;;;;;;6148200;23;20059;-86
2024/02/01 00:25:45;;;;;;;13.35;6.68;;;6.50;99.90;;;;;;6148329;23;20353;-86
2024/02/01 00:28:12;;;;;;;17.75;6.80;;;6.70;99.90;;;;;;6172190;23;20013;-86
2024/02/01 00:30:41;;;;;;;13.23;6.25;;;6.80;99.90;;;;;;6148066;23;20044;-86
2024/02/01 00:33:07;;;;;;;16.50;7.13;;;6.60;99.90;;;;;;6172736;23;20013;-86
2024/02/01 00:35:34;;;;;;;15.57;6.97;;;6.70;99.90;;;;;;6148185;23;20508;-86
2024/02/01 00:38:00;;;;;;;12.70;6.32;;;7.20;99.90;;;;;;6148081;23;20017;-86
2024/02/01 00:40:27;;;;;;;13.07;6.00;;;6.70;99.90;;;;;;6147964;23;20059;-86
2024/02/01 00:42:53;;;;;;;16.00;6.20;;;7.20;99.90;;;;;;6148204;23;20440;-86
2024/02/01 00:45:20;;;;;;;10.82;5.78;;;6.80;99.90;;;;;;6172292;23;20013;-86
2024/02/01 00:47:48;;;;;;;9.25;5.40;;;6.90;99.90;;;;;;6172644;23;20417;-86
2024/02/01 00:50:14;;;;;;;13.57;5.68;;;6.90;99.90;;;;;;6148115;23;20444;-86
2024/02/01 00:52:41;;;;;;;11.68;5.30;;;7.00;99.90;;;;;;6147985;23;20017;-86
2024/02/01 00:55:08;;;;;;;13.73;6.20;;;7.00;99.90;;;;;;6147496;23;20010;-86
2024/02/01 00:57:35;;;;;;;14.45;5.50;;;7.40;99.90;;;;;;6172360;23;20025;-86
2024/02/01 01:00:02;;;;;;;13.73;5.32;;;7.10;99.90;;;;;;6148088;23;20021;-86
2024/02/01 01:02:28;;;;;;;17.67;5.65;;;7.10;99.90;;;;;;6147668;23;20353;-86
2024/02/01 01:04:55;;;;;;;13.40;5.63;;;7.20;99.90;;;;;;6148077;23;20020;-86
2024/02/01 01:07:21;;;;;;;18.08;5.43;;;7.20;99.90;;;;;;6147956;23;20014;-86
2024/02/01 01:09:52;;;;;;;15.93;5.35;;;7.20;99.90;;;;;;6172045;23;20349;-86
2024/02/01 01:12:19;;;;;;;17.80;5.50;;;7.20;99.90;;;;;;6147815;23;20018;-86
2024/02/01 01:14:46;;;;;;;17.42;5.45;;;7.40;99.90;;;;;;6147412;23;20020;-86
2024/02/01 01:17:12;;;;;;;13.73;5.22;;;7.20;99.90;;;;;;6147815;23;20017;-86
2024/02/01 01:19:39;;;;;;;13.90;5.30;;;7.20;99.90;;;;;;6147292;23;20063;-86
2024/02/01 01:22:06;;;;;;;16.88;5.03;;;7.20;99.90;;;;;;6147350;23;20044;-86
2024/02/01 01:24:33;;;;;;;18.83;5.78;;;7.20;99.90;;;;;;6147295;23;20017;-86
2024/02/01 01:26:59;;;;;;;14.35;5.55;;;8.10;99.90;;;;;;6172075;23;20048;-86
2024/02/01 01:29:26;;;;;;;18.63;5.07;;;7.50;99.90;;;;;;6147493;23;20044;-86
2024/02/01 01:31:53;;;;;;;18.77;4.18;;;7.30;99.90;;;;;;6147200;23;20017;-86
2024/02/01 01:34:19;;;;;;;15.38;4.07;;;7.40;99.90;;;;;;6147420;23;20005;-86
2024/02/01 01:36:46;;;;;;;10.63;3.75;;;7.40;99.90;;;;;;6147219;23;20075;-86
2024/02/01 01:39:13;;;;;;;20.33;4.15;;;7.40;99.90;;;;;;6147394;23;20005;-86
2024/02/01 01:41:44;;;;;;;21.27;4.00;;;7.90;99.90;;;;;;6147147;23;20009;-86
2024/02/01 01:44:11;;;;;;;20.42;4.05;;;7.50;99.90;;;;;;6147321;23;20024;-85
2024/02/01 01:46:38;;;;;;;26.50;3.28;;;7.50;99.90;;;;;;6147115;23;20013;-85
2024/02/01 01:49:06;;;;;;;21.50;3.38;;;7.80;99.90;;;;;;6147107;23;20076;-86
2024/02/01 01:51:35;;;;;;;15.30;3.13;;;7.50;99.90;;;;;;6147025;23;20101;-86
2024/02/01 01:54:06;;;;;;;13.93;2.72;;;7.50;99.90;;;;;;6147374;23;20048;-85
2024/02/01 01:56:37;;;;;;;17.55;3.05;;;8.30;99.90;;;;;;6147097;23;20021;-86
2024/02/01 01:59:07;;;;;;;21.85;3.15;;;7.80;99.90;;;;;;6147252;23;20406;-86
2024/02/01 02:01:35;;;;;;;23.25;3.33;;;7.50;99.90;;;;;;6147168;23;20041;-86
2024/02/01 02:04:05;;;;;;;15.63;2.80;;;7.40;99.90;;;;;;6146908;23;20085;-86
2024/02/01 02:06:32;;;;;;;21.02;3.67;;;7.40;99.90;;;;;;6146274;23;20021;-85
2024/02/01 02:08:59;;;;;;;23.33;3.53;;;7.40;99.90;;;;;;6171109;23;20013;-85
2024/02/01 02:11:27;;;;;;;23.83;3.30;;;7.40;99.90;;;;;;6146826;23;20017;-85
2024/02/01 02:13:53;;;;;;;17.25;2.63;;;7.30;99.90;;;;;;6146812;23;20056;-86
2024/02/01 02:16:20;;;;;;;20.15;3.30;;;7.30;99.90;;;;;;6147327;23;20072;-86
2024/02/01 02:18:47;;;;;;;22.67;3.20;;;7.20;99.90;;;;;;6146946;23;20018;-85
2024/02/01 02:21:21;;;;;;;14.80;2.92;;;7.40;99.90;;;;;;6147283;23;20021;-86
2024/02/01 02:23:49;;;;;;;24.33;3.50;;;7.10;99.90;;;;;;6147344;23;20014;-86
2024/02/01 02:26:16;;;;;;;17.98;2.95;;;7.50;99.90;;;;;;6147245;23;20010;-85
2024/02/01 02:28:43;;;;;;;21.27;4.18;;;7.40;99.90;;;;;;6171459;23;20037;-85
2024/02/01 02:31:09;;;;;;;25.70;3.78;;;7.50;99.90;;;;;;6171464;23;20009;-86
2024/02/01 02:33:36;;;;;;;19.95;3.03;;;7.80;99.90;;;;;;6146859;23;20020;-86
2024/02/01 02:36:03;;;;;;;13.90;2.88;;;6.80;99.90;;;;;;6147251;23;20020;-86
2024/02/01 02:38:29;;;;;;;23.42;3.00;;;6.70;99.90;;;;;;6146958;23;20013;-85
2024/02/01 02:40:56;;;;;;;21.40;3.78;;;6.80;99.90;;;;;;6147164;23;20013;-86
2024/02/01 02:43:23;;;;;;;20.25;2.88;;;6.60;99.90;;;;;;6147197;23;20060;-86
2024/02/01 02:45:49;;;;;;;25.92;3.50;;;6.50;99.90;;;;;;6147097;23;20449;-85
2024/02/01 02:48:16;;;;;;;25.67;3.30;;;7.20;99.90;;;;;;6147383;23;20018;-85
2024/02/01 02:50:43;;;;;;;22.30;3.08;;;6.40;99.90;;;;;;6148336;23;20017;-85
2024/02/01 02:53:09;;;;;;;24.88;3.17;;;6.80;99.90;;;;;;6149162;23;20009;-85
2024/02/01 02:55:36;;;;;;;20.95;3.42;;;6.30;99.90;;;;;;6149131;23;20009;-85
2024/02/01 02:58:03;;;;;;;28.52;3.30;;;6.90;99.90;;;;;;6148872;23;20016;-86
2024/02/01 03:00:32;;;;;;;20.60;3.78;;;6.10;99.90;;;;;;6173323;23;20069;-85
2024/02/01 03:02:59;;;;;;;23.75;3.15;;;6.10;99.90;;;;;;6172922;23;20013;-85
2024/02/01 03:05:26;;;;;;;16.75;2.70;;;6.00;99.90;;;;;;6172988;23;20085;-86
2024/02/01 03:07:53;;;;;;;14.43;3.60;;;6.10;99.90;;;;;;6148432;23;20052;-85
2024/02/01 03:10:21;;;;;;;24.55;3.28;;;6.00;99.90;;;;;;6148601;23;20807;-85
2024/02/01 03:12:48;;;;;;;28.10;3.83;;;7.00;99.90;;;;;;6148710;23;20013;-85
2024/02/01 03:15:15;;;;;;;28.65;3.92;;;6.20;99.90;;;;;;6148452;23;20475;-86
2024/02/01 03:17:41;;;;;;;24.92;4.00;;;5.80;99.90;;;;;;6148462;23;20520;-86
2024/02/01 03:20:17;;;;;;;22.42;2.78;;;6.30;99.90;;;;;;6148604;23;20013;-85
2024/02/01 03:22:45;;;;;;;;;;;5.70;99.90;;;;;;6149223;23;20024;-86
2024/02/01 03:25:13;;;;;;;22.70;2.75;;;5.70;99.90;;;;;;6148680;23;19971;-85
2024/02/01 03:27:43;;;;;;;22.73;3.95;;;5.60;99.90;;;;;;6148508;23;20464;-86
2024/02/01 03:30:11;;;;;;;22.05;2.42;;;5.80;99.90;;;;;;6148685;23;20112;-86
2024/02/01 03:32:41;;;;;;;26.83;3.50;;;6.00;99.90;;;;;;6148678;23;20025;-86
2024/02/01 03:35:09;;;;;;;25.85;3.05;;;5.60;99.90;;;;;;6148325;23;20010;-86
2024/02/01 03:37:35;;;;;;;26.08;3.33;;;5.50;99.90;;;;;;6148494;23;20049;-86
2024/02/01 03:40:04;;;;;;;37.55;3.67;;;6.40;99.90;;;;;;6148320;23;20471;-86
2024/02/01 03:42:31;;;;;;;30.00;2.70;;;5.40;99.90;;;;;;6148458;23;20341;-85
2024/02/01 03:44:58;;;;;;;21.42;3.13;;;5.60;99.90;;;;;;6148404;23;20013;-86
2024/02/01 03:47:24;;;;;;;29.05;2.95;;;5.50;99.90;;;;;;6148710;23;20013;-85
2024/02/01 03:49:51;;;;;;;29.67;3.15;;;5.40;99.90;;;;;;6148163;23;20010;-85
2024/02/01 03:52:20;;;;;;;26.95;3.17;;;6.50;99.90;;;;;;6148538;23;20507;-86
2024/02/01 03:54:47;;;;;;;18.25;2.35;;;5.30;99.90;;;;;;6148043;23;20009;-85
2024/02/01 03:57:15;;;;;;;24.55;3.13;;;6.40;99.90;;;;;;6148476;23;20009;-86
2024/02/01 03:59:43;;;;;;;19.75;3.03;;;5.90;99.90;;;;;;6148071;23;20045;-85
2024/02/01 04:02:14;;;;;;;19.20;3.05;;;5.60;99.90;;;;;;6172235;23;20045;-85
2024/02/01 04:04:47;;;;;;;24.38;3.03;;;5.90;99.90;;;;;;6148217;23;20068;-85
2024/02/01 04:07:17;;;;;;;25.50;3.20;;;5.20;99.90;;;;;;6148402;23;20353;-85
2024/02/01 04:09:44;;;;;;;21.75;3.38;;;5.20;99.90;;;;;;6147984;23;20020;-85
2024/02/01 04:12:12;;;;;;;21.88;3.60;;;5.60;99.90;;;;;;6147992;23;20018;-85
2024/02/01 04:14:39;;;;;;;25.23;3.08;;;5.10;99.90;;;;;;6148160;23;20037;-86
2024/02/01 04:17:06;;;;;;;20.58;2.92;;;5.70;99.90;;;;;;6148216;23;20707;-86
2024/02/01 04:19:33;;;;;;;23.75;3.00;;;5.10;99.90;;;;;;6147726;23;20013;-85
2024/02/01 04:22:00;;;;;;;22.20;3.42;;;5.10;99.90;;;;;;6148197;23;20024;-86
2024/02/01 04:24:26;;;;;;;31.02;3.47;;;5.10;99.90;;;;;;6147616;23;20076;-85
2024/02/01 04:26:53;;;;;;;25.48;2.95;;;6.10;99.90;;;;;;6147950;23;20017;-85
2024/02/01 04:29:19;;;;;;;22.55;3.47;;;5.00;99.90;;;;;;6148183;23;20344;-85
2024/02/01 04:31:46;;;;;;;22.48;3.40;;;5.40;99.90;;;;;;6148306;23;20028;-86
2024/02/01 04:34:13;;;;;;;16.02;3.13;;;5.00;99.90;;;;;;6172387;23;20014;-86
2024/02/01 04:36:39;;;;;;;18.17;2.75;;;5.40;99.90;;;;;;6148321;23;20018;-86
2024/02/01 04:39:08;;;;;;;27.02;3.38;;;4.90;99.90;;;;;;6147873;23;20017;-86
2024/02/01 04:41:38;;;;;;;32.22;4.25;;;5.60;99.90;;;;;;6147903;23;20040;-86
2024/02/01 04:44:07;;;;;;;24.73;3.10;;;4.90;99.90;;;;;;6147972;23;20005;-85
2024/02/01 04:46:34;;;;;;;26.15;3.28;;;5.20;99.90;;;;;;6147902;23;20341;-85
2024/02/01 04:49:03;;;;;;;30.05;3.45;;;4.90;99.90;;;;;;6147992;23;20010;-86
2024/02/01 04:51:30;;;;;;;23.00;2.83;;;4.80;99.90;;;;;;6172089;23;20020;-86
2024/02/01 04:53:57;;;;;;;28.77;3.40;;;4.80;99.90;;;;;;6172592;23;20006;-85
2024/02/01 04:56:23;;;;;;;25.05;3.30;;;5.30;99.90;;;;;;6147869;23;20401;-86
2024/02/01 04:58:50;;;;;;;28.23;3.53;;;4.70;99.90;;;;;;6147918;23;20483;-86
2024/02/01 05:01:17;;;;;;;28.90;2.90;;;4.70;99.90;;;;;;6147879;23;20021;-86
2024/02/01 05:03:43;;;;;;;27.92;3.85;;;4.70;99.90;;;;;;6147586;23;20013;-86
2024/02/01 05:06:10;;;;;;;20.25;3.10;;;4.70;99.90;;;;;;6172231;23;20013;-86
2024/02/01 05:08:36;;;;;;;24.08;3.58;;;4.70;99.90;;;;;;6147319;23;20028;-85
2024/02/01 05:11:04;;;;;;;21.02;3.25;;;4.60;99.90;;;;;;6147931;23;20009;-85
2024/02/01 05:13:31;;;;;;;23.10;3.75;;;4.60;99.90;;;;;;6147604;23;20017;-86
2024/02/01 05:15:58;;;;;;;29.60;3.35;;;5.10;99.90;;;;;;6147607;23;20460;-86
2024/02/01 05:18:26;;;;;;;21.27;3.13;;;4.60;99.90;;;;;;6147295;23;20636;-85
2024/02/01 05:20:53;;;;;;;20.63;3.00;;;4.60;99.90;;;;;;6147611;23;20021;-85
2024/02/01 05:23:19;;;;;;;26.38;3.72;;;5.60;99.90;;;;;;6147404;23;20006;-85
2024/02/01 05:25:46;;;;;;;28.17;3.80;;;4.60;99.90;;;;;;6147231;23;20021;-86
2024/02/01 05:28:13;;;;;;;25.95;2.90;;;4.50;99.90;;;;;;6147792;23;20444;-86
2024/02/01 05:30:43;;;;;;;28.58;3.30;;;4.50;99.90;;;;;;6172008;23;20018;-85
2024/02/01 05:33:09;;;;;;;22.13;3.50;;;4.40;99.90;;;;;;6147613;23;20010;-85
2024/02/01 05:35:36;;;;;;;21.85;3.83;;;4.40;99.90;;;;;;6147654;23;20017;-85
2024/02/01 05:38:05;;;;;;;19.90;2.95;;;4.40;99.90;;;;;;6171925;23;20018;-85
2024/02/01 05:40:32;;;;;;;23.23;3.65;;;4.40;99.90;;;;;;6147101;23;20024;-85
2024/02/01 05:42:59;;;;;;;34.03;3.15;;;5.30;99.90;;;;;;6147366;23;20006;-86
2024/02/01 05:45:28;;;;;;;28.63;3.53;;;4.80;99.90;;;;;;6147267;23;20217;-85
2024/02/01 05:47:55;;;;;;;25.23;4.53;;;5.20;99.90;;;;;;6147164;23;20020;-85
2024/02/01 05:50:22;;;;;;;32.42;3.35;;;5.20;99.90;;;;;;6147180;23;20021;-85
2024/02/01 05:52:48;;;;;;;33.17;4.78;;;5.00;99.90;;;;;;6147058;23;20035;-86
2024/02/01 05:55:15;;;;;;;23.77;3.05;;;4.30;99.90;;;;;;6147227;23;20006;-86
2024/02/01 05:57:42;;;;;;;27.10;4.15;;;4.30;99.90;;;;;;6147328;23;20021;-86
2024/02/01 06:00:10;;;;;;;28.70;3.92;;;4.80;99.90;;;;;;6171850;23;20471;-86
2024/02/01 06:02:37;;;;;;;38.05;3.78;;;4.20;99.90;;;;;;6171842;23;20092;-86
2024/02/01 06:05:05;;;;;;;32.28;4.75;;;4.20;99.90;;;;;;6147498;23;20017;-85
2024/02/01 06:07:32;;;;;;;20.77;3.10;;;4.20;99.90;;;;;;6146982;23;20051;-86
2024/02/01 06:09:59;;;;;;;26.80;3.47;;;4.20;99.90;;;;;;6170992;23;20444;-86
2024/02/01 06:12:28;;;;;;;25.33;3.30;;;4.20;99.90;;;;;;6171446;23;20585;-85
2024/02/01 06:14:56;;;;;;;13.52;2.70;;;5.10;99.90;;;;;;6146966;23;20018;-85
2024/02/01 06:17:22;;;;;;;29.25;3.78;;;5.10;99.90;;;;;;6147340;23;20025;-85
2024/02/01 06:19:49;;;;;;;25.08;3.60;;;4.10;99.90;;;;;;6146645;23;20013;-86
2024/02/01 06:22:16;;;;;;;26.65;3.75;;;4.50;99.90;;;;;;6147133;23;20025;-86
2024/02/01 06:24:42;;;;;;;23.10;4.03;;;4.10;99.90;;;;;;6147749;23;20021;-86
2024/02/01 06:27:09;;;;;;;19.92;3.00;;;4.50;99.90;;;;;;6149323;23;20021;-86
2024/02/01 06:29:37;;;;;;;29.15;3.40;;;4.20;99.90;;;;;;6149341;23;20025;-86
2024/02/01 06:32:12;;;;;;;31.00;3.85;;;4.10;99.90;;;;;;6173538;23;20092;-86
2024/02/01 06:34:39;;;;;;;36.88;4.00;;;4.10;99.90;;;;;;6148844;23;20017;-86
2024/02/01 06:37:08;;;;;;;23.52;3.42;;;4.00;99.90;;;;;;6149299;23;20017;-85
2024/02/01 06:42:04;;;;;;;22.70;3.28;;;4.10;99.90;;;;;;6173487;23;20348;-86
2024/02/01 06:44:33;;;;;;;27.08;3.80;;;4.10;99.90;;;;;;6148558;23;20021;-86
2024/02/01 06:52:24;;;;;;;22.33;3.88;;;4.00;99.90;;;;;;6173662;23;20508;-85
2024/02/01 06:58:03;;;;;;;;;;;4.00;99.90;;;;;;6173785;23;20021;-86
2024/02/01 07:03:21;;;;;;;22.70;2.75;;;3.90;99.90;;;;;;6172797;23;20021;-85
2024/02/01 07:16:38;;;;;;;29.48;4.00;;;3.90;99.90;;;;;;6172376;23;20080;-86
2024/02/01 07:22:02;;;;;;;24.23;3.35;;;3.80;99.90;;;;;;6172749;23;20018;-85
2024/02/01 07:24:46;;;;;;;25.02;3.20;;;3.80;99.90;;;;;;6148338;23;20022;-86
2024/02/01 07:57:51;;;;;;;26.60;4.03;;;3.90;99.90;;;;;;6172389;23;20092;-84
2024/02/01 08:00:33;;;;;;;21.90;2.75;;;3.90;99.90;;;;;;6147168;23;20006;-85
2024/02/01 08:03:03;;;;;;;19.83;3.15;;;3.90;99.90;;;;;;6147484;23;20084;-85
2024/02/01 08:08:16;;;;;;;21.75;3.05;;;4.60;99.90;;;;;;6172320;23;20052;-86
2024/02/01 08:10:46;;;;;;;23.65;3.75;;;3.90;99.90;;;;;;6147846;23;20017;-86
2024/02/01 08:13:12;;;;;;;21.23;3.30;;;4.90;99.90;;;;;;6147872;23;20013;-85
2024/02/01 08:15:43;;;;;;;25.30;3.80;;;3.90;99.90;;;;;;6147677;23;20161;-85
2024/02/01 08:18:11;;;;;;;33.92;4.10;;;3.90;99.90;;;;;;6147570;23;20322;-85
2024/02/01 08:20:39;;;;;;;21.90;3.65;;;4.90;99.90;;;;;;6147501;23;20023;-86
2024/02/01 08:23:07;;;;;;;30.55;3.55;;;3.90;99.90;;;;;;6147923;23;20439;-85
2024/02/01 08:25:33;;;;;;;20.90;3.88;;;4.00;99.90;;;;;;6147408;23;20055;-86
2024/02/01 08:28:01;;;;;;;25.48;3.10;;;4.80;99.90;;;;;;6147930;23;20498;-86
2024/02/01 08:30:31;;;;;;;24.70;3.13;;;4.00;99.90;;;;;;6147435;23;20024;-86
2024/02/01 08:33:05;;;;;;;29.55;3.15;;;4.00;99.90;;;;;;6147768;23;20009;-85
2024/02/01 08:35:35;;;;;;;30.30;3.72;;;4.00;99.90;;;;;;6147553;23;20028;-85
2024/02/01 08:38:06;;;;;;;30.25;3.72;;;4.40;99.90;;;;;;6147822;23;20009;-85
2024/02/01 08:40:33;;;;;;;24.15;3.33;;;4.10;99.90;;;;;;6147110;23;20017;-85
2024/02/01 08:43:00;;;;;;;30.00;3.30;;;4.10;99.90;;;;;;6172223;23;20020;-85
2024/02/01 08:45:28;;;;;;;24.48;2.97;;;4.20;99.90;;;;;;6148109;23;20021;-86
2024/02/01 08:48:00;;;;;;;26.67;3.85;;;4.20;99.90;;;;;;6147956;23;20018;-86
2024/02/01 08:50:28;;;;;;;14.57;3.08;;;5.10;99.90;;;;;;6147649;23;20009;-85
2024/02/01 08:52:55;;;;;;;24.42;3.38;;;4.30;99.90;;;;;;6146630;23;20013;-85
2024/02/01 08:55:22;;;;;;;35.03;4.03;;;4.80;99.90;;;;;;6171316;23;20014;-85
2024/02/01 08:57:49;;;;;;;30.27;3.75;;;5.60;99.90;;;;;;6147032;23;20032;-85
2024/02/01 09:00:25;;;;;;;34.50;3.80;;;4.40;99.90;;;;;;6171353;23;20013;-84
2024/02/01 09:03:03;;;;;;;34.15;5.05;;;4.40;99.90;;;;;;6171409;23;20009;-86
2024/02/01 09:05:36;;;;;;;27.33;3.53;;;4.50;99.90;;;;;;6147321;23;20014;-85
2024/02/01 09:08:06;;;;;;;28.85;4.38;;;4.50;99.90;;;;;;6146875;23;20014;-85
2024/02/01 09:10:33;;;;;;;26.05;3.58;;;4.60;99.90;;;;;;6146844;23;20024;-85
2024/02/01 09:13:00;;;;;;;25.67;4.20;;;5.60;99.90;;;;;;6147379;23;20024;-85
2024/02/01 09:15:26;;;;;;;26.25;3.90;;;4.70;99.90;;;;;;6147112;23;20022;-85
2024/02/01 09:17:56;;;;;;;24.60;4.25;;;5.40;99.90;;;;;;6147666;23;20021;-85
2024/02/01 09:20:23;;;;;;;24.67;3.35;;;4.80;99.90;;;;;;6147009;23;20068;-85
2024/02/01 09:22:52;;;;;;;23.08;3.50;;;5.40;99.90;;;;;;6147562;23;20021;-85
2024/02/01 09:25:20;;;;;;;30.80;3.90;;;5.00;99.90;;;;;;6146794;23;20017;-85
2024/02/01 09:27:52;;;;;;;35.63;3.78;;;5.10;99.90;;;;;;6170891;23;20096;-85
2024/02/01 09:30:26;;;;;;;19.48;3.65;;;5.10;99.90;;;;;;6171094;23;20013;-85
2024/02/01 09:32:56;;;;;;;33.17;4.30;;;5.10;99.90;;;;;;6146580;23;20097;-86
2024/02/01 09:35:24;;;;;;;28.38;4.00;;;5.20;99.90;;;;;;6146199;23;20009;-85
2024/02/01 09:37:53;;;;;;;23.65;4.15;;;5.30;99.90;;;;;;6146920;23;20021;-85
2024/02/01 09:40:21;;;;;;;23.55;4.57;;;5.90;99.90;;;;;;6171543;23;20349;-84
2024/02/01 09:42:49;;;;;;;29.35;3.83;;;5.40;99.90;;;;;;6171689;23;20388;-86
2024/02/01 09:45:18;;;;;;;31.05;3.83;;;5.50;99.90;;;;;;6147199;23;20052;-85
2024/02/01 09:47:46;;;;;;;21.80;3.33;;;5.50;99.90;;;;;;6147182;23;20024;-85
2024/02/01 09:50:14;;;;;;;26.33;3.40;;;5.60;99.90;;;;;;6147087;23;20018;-85
2024/02/01 09:52:45;;;;;;;26.77;3.65;;;5.60;99.90;;;;;;6147079;23;20017;-85
2024/02/01 09:55:22;;;;;;;29.00;3.63;;;5.70;99.90;;;;;;6146871;23;20389;-85
2024/02/01 09:57:52;;;;;;;15.88;2.88;;;6.20;99.90;;;;;;6146982;23;20334;-86
2024/02/01 10:00:22;;;;;;;26.77;3.40;;;5.80;99.90;;;;;;6172708;23;20064;-86
2024/02/01 10:02:51;;;;;;;25.13;3.78;;;5.90;99.90;;;;;;6149290;23;20041;-85
2024/02/01 10:05:19;;;;;;;20.98;3.53;;;5.90;99.90;;;;;;6149460;23;20019;-86
2024/02/01 10:07:47;;;;;;;31.23;4.18;;;6.00;99.90;;;;;;6148055;23;20014;-85
2024/02/01 10:10:13;;;;;;;23.27;4.10;;;7.00;99.90;;;;;;6148030;23;20013;-85
2024/02/01 10:12:43;;;;;;;38.70;3.90;;;6.90;99.90;;;;;;6148709;23;20533;-85
2024/02/01 10:15:11;;;;;;;21.52;3.33;;;6.10;99.90;;;;;;6172655;23;20013;-85
2024/02/01 10:17:45;;;;;;;30.70;3.55;;;7.20;99.90;;;;;;6148373;23;20010;-85
2024/02/01 10:20:34;;;;;;;27.77;3.65;;;6.20;99.90;;;;;;6172585;23;20021;-85
2024/02/01 10:23:05;;;;;;;30.65;3.50;;;6.30;99.90;;;;;;6148323;23;20036;-85
2024/02/01 10:25:34;;;;;;;23.92;3.72;;;6.30;99.90;;;;;;6172713;23;20048;-85
2024/02/01 10:28:04;;;;;;;25.40;3.85;;;6.40;99.90;;;;;;6148420;23;20341;-85
2024/02/01 10:30:31;;;;;;;20.58;3.47;;;6.40;99.90;;;;;;6148544;23;20013;-85
2024/02/01 10:33:03;;;;;;;23.27;3.53;;;7.00;99.90;;;;;;6148903;23;20104;-85
2024/02/01 10:35:31;;;;;;;24.92;3.45;;;6.50;99.90;;;;;;6148672;23;20017;-85
2024/02/01 10:38:01;;;;;;;24.73;3.95;;;6.50;99.90;;;;;;6148902;23;20005;-85
2024/02/01 10:40:39;;;;;;;25.77;4.38;;;6.90;99.90;;;;;;6148622;23;20020;-85
2024/02/01 10:43:07;;;;;;;26.10;3.67;;;6.80;99.90;;;;;;6148429;23;20408;-85
2024/02/01 10:45:37;;;;;;;28.13;3.80;;;7.20;99.90;;;;;;6148414;23;20444;-85
2024/02/01 10:48:09;;;;;;;28.63;3.78;;;7.40;99.90;;;;;;6148141;23;20024;-84
2024/02/01 10:50:39;;;;;;;27.45;4.10;;;7.00;99.90;;;;;;6172725;23;20017;-85
2024/02/01 10:53:11;;;;;;;26.67;3.90;;;7.00;99.90;;;;;;6148633;23;20017;-85
2024/02/01 10:55:39;;;;;;;19.85;3.50;;;7.30;99.90;;;;;;6172695;23;20013;-85
2024/02/01 10:58:13;;;;;;;23.10;3.00;;;7.20;99.90;;;;;;6172395;23;20018;-85
2024/02/01 11:00:42;;;;;;;26.77;4.22;;;7.20;99.90;;;;;;6148222;23;20362;-85
2024/02/01 11:03:11;;;;;;;24.98;3.67;;;7.20;99.90;;;;;;6147859;23;20014;-86
2024/02/01 11:05:39;;;;;;;26.15;3.80;;;7.20;99.90;;;;;;6147890;23;20072;-86
2024/02/01 11:08:16;;;;;;;30.75;3.60;;;7.30;99.90;;;;;;6148415;23;20049;-86
2024/02/01 11:10:58;;;;;;;27.15;3.28;;;7.30;99.90;;;;;;6154286;23;20010;-85
2024/02/01 11:13:29;;;;;;;25.20;3.42;;;7.30;99.90;;;;;;6149164;23;20024;-86
2024/02/01 11:15:58;;;;;;;26.38;3.75;;;7.40;99.90;;;;;;6148036;23;20021;-86
2024/02/01 11:18:25;;;;;;;21.45;3.80;;;7.50;99.90;;;;;;6148101;23;20015;-86
2024/02/01 11:20:57;;;;;;;23.02;3.10;;;7.40;99.90;;;;;;6147714;23;20393;-85
2024/02/01 11:23:24;;;;;;;18.73;3.10;;;7.30;99.90;;;;;;6147903;23;20013;-85
2024/02/01 11:25:55;;;;;;;32.38;3.50;;;7.40;99.90;;;;;;6147741;23;20017;-85
2024/02/01 11:28:28;;;;;;;28.77;3.53;;;8.00;99.90;;;;;;6147968;23;20076;-85
2024/02/01 11:30:55;;;;;;;19.55;5.10;;;7.90;99.90;;;;;;6148267;23;20017;-85
2024/02/01 11:33:27;;;;;;;25.40;5.15;;;8.40;99.90;;;;;;6148339;23;20388;-85
2024/02/01 11:35:57;;;;;;;20.40;4.00;;;7.50;99.90;;;;;;6172236;23;20018;-85
2024/02/01 11:38:27;;;;;;;31.70;4.07;;;7.50;99.90;;;;;;6147672;23;20384;-85
2024/02/01 11:40:53;;;;;;;23.65;3.22;;;8.30;99.90;;;;;;6147948;23;20017;-85
2024/02/01 11:43:20;;;;;;;25.17;3.85;;;7.60;99.90;;;;;;6147648;23;20017;-85
2024/02/01 11:45:53;;;;;;;19.27;3.40;;;8.30;99.90;;;;;;6149462;23;20009;-85
2024/02/01 11:48:22;;;;;;;22.20;3.45;;;7.70;99.90;;;;;;6147547;23;20068;-85
2024/02/01 11:50:58;;;;;;;19.55;3.38;;;7.70;99.90;;;;;;6146751;23;20052;-85
2024/02/01 11:53:27;;;;;;;22.92;3.13;;;8.10;99.90;;;;;;6171868;23;20013;-85
2024/02/01 11:55:54;;;;;;;22.33;2.95;;;7.70;99.90;;;;;;6147036;23;20349;-85
2024/02/01 11:58:22;;;;;;;22.73;4.18;;;7.70;99.90;;;;;;6147801;23;20014;-85
2024/02/01 12:00:50;;;;;;;16.67;2.88;;;8.20;99.90;;;;;;6147747;23;20449;-85
2024/02/01 12:03:19;;;;;;;23.65;3.53;;;7.90;99.90;;;;;;6147923;23;20348;-85
2024/02/01 12:05:46;;;;;;;31.10;3.72;;;7.70;99.90;;;;;;6147531;23;20017;-85
2024/02/01 12:08:13;;;;;;;17.58;3.75;;;8.70;99.90;;;;;;6171899;23;20020;-85
2024/02/01 12:10:45;;;;;;;24.13;4.03;;;8.70;99.90;;;;;;6147053;23;20413;-85
2024/02/01 12:13:13;;;;;;;19.33;3.75;;;7.70;99.90;;;;;;6147133;23;20013;-85
2024/02/01 12:15:52;;;;;;;23.95;3.05;;;7.70;99.90;;;;;;6146926;23;20044;-85
2024/02/01 12:18:19;;;;;;;26.83;3.75;;;7.70;99.90;;;;;;6147325;23;20048;-86
2024/02/01 12:20:49;;;;;;;20.35;3.38;;;7.70;99.90;;;;;;6147384;23;20021;-85
2024/02/01 12:23:16;;;;;;;26.65;3.10;;;8.50;99.90;;;;;;6146572;23;20009;-85
2024/02/01 12:25:50;;;;;;;24.05;3.78;;;7.90;99.90;;;;;;6147892;23;20019;-85
2024/02/01 12:28:17;;;;;;;26.88;3.60;;;7.70;99.90;;;;;;6171756;23;20021;-85
2024/02/01 12:30:44;;;;;;;18.70;2.50;;;7.70;99.90;;;;;;6147355;23;20080;-85
2024/02/01 12:33:14;;;;;;;21.67;3.30;;;7.70;99.90;;;;;;6147420;23;20018;-85
2024/02/01 12:35:44;;;;;;;27.13;4.28;;;7.80;99.90;;;;;;6171889;23;20017;-85
2024/02/01 12:38:11;;;;;;;21.75;3.20;;;8.70;99.90;;;;;;6146865;23;20766;-85
2024/02/01 12:40:38;;;;;;;27.85;3.20;;;8.80;99.90;;;;;;6146739;23;20014;-85
2024/02/01 12:43:05;;;;;;;21.30;3.38;;;7.80;99.90;;;;;;6147015;23;20088;-85
2024/02/01 12:45:32;;;;;;;25.35;3.90;;;8.40;99.90;;;;;;6146933;23;20010;-85
2024/02/01 12:47:59;;;;;;;19.52;3.53;;;9.20;99.90;;;;;;6146944;23;20019;-85
2024/02/01 12:50:26;;;;;;;20.48;3.60;;;8.70;99.90;;;;;;6147175;23;20021;-85
2024/02/01 12:52:53;;;;;;;23.92;3.60;;;8.20;99.90;;;;;;6146726;23;20020;-85
2024/02/01 12:55:20;;;;;;;21.00;2.92;;;8.00;99.90;;;;;;6146341;23;20096;-85
2024/02/01 12:57:47;;;;;;;21.02;3.15;;;7.90;99.90;;;;;;6146759;23;20014;-85
2024/02/01 13:00:14;;;;;;;25.48;3.63;;;8.00;99.90;;;;;;6146692;23;20523;-85
2024/02/01 13:02:41;;;;;;;19.52;2.60;;;8.00;99.90;;;;;;6146369;23;20728;-85
2024/02/01 13:05:09;;;;;;;22.10;2.78;;;8.00;99.90;;;;;;6146221;23;20018;-85
2024/02/01 13:07:36;;;;;;;23.20;3.40;;;8.90;99.90;;;;;;6146617;23;20017;-85
2024/02/01 13:10:09;;;;;;;17.90;2.53;;;8.20;99.90;;;;;;6170951;23;20017;-85
2024/02/01 13:12:36;;;;;;;22.73;3.38;;;7.90;99.90;;;;;;6171271;23;20115;-85
2024/02/01 13:15:05;;;;;;;28.15;3.75;;;8.00;99.90;;;;;;6146596;23;20453;-85
2024/02/01 13:17:36;;;;;;;24.98;4.28;;;8.00;99.90;;;;;;6146786;23;20064;-85
2024/02/01 13:20:19;;;;;;;30.60;4.55;;;8.70;99.90;;;;;;6172501;23;20016;-85
2024/02/01 13:22:50;;;;;;;24.15;2.72;;;7.80;99.90;;;;;;6146681;23;20053;-85
2024/02/01 13:25:19;;;;;;;19.55;3.13;;;7.80;99.90;;;;;;6146517;23;20021;-85
2024/02/01 13:27:47;;;;;;;20.30;2.92;;;8.50;99.90;;;;;;6146738;23;20064;-85
2024/02/01 13:30:15;;;;;;;17.13;2.42;;;7.80;99.90;;;;;;6146839;23;20017;-85
2024/02/01 13:32:43;;;;;;;23.10;3.17;;;7.80;99.90;;;;;;6170773;23;20013;-85
2024/02/01 13:35:11;;;;;;;16.73;3.15;;;7.70;99.90;;;;;;6146306;23;20009;-85
2024/02/01 13:37:38;;;;;;;18.65;2.88;;;7.70;99.90;;;;;;6146637;23;20010;-85
2024/02/01 13:40:06;;;;;;;18.58;2.78;;;7.70;99.90;;;;;;6146942;23;20357;-85
2024/02/01 13:42:35;;;;;;;21.27;3.45;;;7.70;99.90;;;;;;6146757;23;20068;-85
2024/02/01 13:45:03;;;;;;;17.85;2.47;;;7.70;99.90;;;;;;6171318;23;20064;-85
2024/02/01 13:47:31;;;;;;;21.75;2.58;;;7.60;99.90;;;;;;6146768;23;20214;-85
2024/02/01 13:49:58;;;;;;;20.58;3.92;;;8.50;99.90;;;;;;6146576;23;20045;-85
2024/02/01 13:52:26;;;;;;;17.25;2.42;;;7.60;99.90;;;;;;6146085;23;20009;-85
2024/02/01 13:54:53;;;;;;;15.57;2.83;;;7.60;99.90;;;;;;6146426;23;20020;-85